Terminal Aerodrome Forecast
Issued by NWS

Home | Current Version | Previous Version | Graphics & Text | Print | Product List | Glossary On
Versions: 1 2 3 4 5 6 7 8 9 10 11 12 13 14 15 16 17 18 19 20
000
FTUS43 KOAX 252110 AAA
TAFCDR
TAF AMD
KCDR 252110Z 2521/2618 03013KT P6SM SCT080 OVC200
     FM260300 04012KT P6SM -SHRA SCT030 OVC050
     FM260600 01005KT P6SM BKN100=

USA.gov is the U.S. government's official web portal to all federal, state and local government web resources and services.